Dundas, Canada
Current Conditions -  °F | °C
As of 2:00 PM on Thursday 30 Oct 2014 (Local Time) from CYHM Reporting Station
Broken Clouds Broken Clouds  
Wind Chill: 44°   Ceiling: 3500
Heat Index: 46°   Visibility: 15mi
Dew Point: 34°   Wind: 5mph
Humidity: 62%   Direction: 330°NNW
Pressure: 30.06"   Gusts: NA
Location:  43.27°N, 79.93°W
Report Text: CYHM 301800Z 33004KT 270V340 15SM FEW028 BKN035 BKN039 08/01 A3006 RMK CU1SC4SC2 SLP184
Loading
Personal Weather Stations






























Interactive Weather Map
Tropical Storm Tracking
New forecast layout! Learn more

10-Day Weather Forecast

Advertisements
Track Severe Weather on mobile